sensor_id;sensor_type;location;lat;lon;timestamp;P1;durP1;ratioP1;P2;durP2;ratioP2
51866;SDS011;52862;52.504;13.480;2023-10-13T00:02:09;18.07;;;5.30;;
51866;SDS011;52862;52.504;13.480;2023-10-13T00:04:36;21.93;;;5.33;;
51866;SDS011;52862;52.504;13.480;2023-10-13T00:07:03;15.80;;;4.50;;
51866;SDS011;52862;52.504;13.480;2023-10-13T00:09:30;21.60;;;4.53;;
51866;SDS011;52862;52.504;13.480;2023-10-13T00:11:59;23.03;;;5.50;;
51866;SDS011;52862;52.504;13.480;2023-10-13T00:14:26;19.47;;;5.90;;
51866;SDS011;52862;52.504;13.480;2023-10-13T00:17:01;22.77;;;6.07;;
51866;SDS011;52862;52.504;13.480;2023-10-13T00:19:30;33.33;;;6.33;;
51866;SDS011;52862;52.504;13.480;2023-10-13T00:22:04;15.37;;;5.60;;
51866;SDS011;52862;52.504;13.480;2023-10-13T00:24:35;27.13;;;9.07;;
51866;SDS011;52862;52.504;13.480;2023-10-13T00:27:09;27.50;;;6.07;;
51866;SDS011;52862;52.504;13.480;2023-10-13T00:29:50;21.47;;;5.07;;
51866;SDS011;52862;52.504;13.480;2023-10-13T00:32:30;20.37;;;5.00;;
51866;SDS011;52862;52.504;13.480;2023-10-13T00:34:58;17.23;;;5.03;;
51866;SDS011;52862;52.504;13.480;2023-10-13T00:37:30;17.67;;;5.07;;
51866;SDS011;52862;52.504;13.480;2023-10-13T00:40:07;16.37;;;4.20;;
51866;SDS011;52862;52.504;13.480;2023-10-13T00:42:52;16.33;;;4.17;;
51866;SDS011;52862;52.504;13.480;2023-10-13T00:45:19;25.27;;;4.80;;
51866;SDS011;52862;52.504;13.480;2023-10-13T00:47:46;10.73;;;4.00;;
51866;SDS011;52862;52.504;13.480;2023-10-13T00:50:22;16.50;;;4.30;;
51866;SDS011;52862;52.504;13.480;2023-10-13T00:52:49;21.43;;;4.27;;
51866;SDS011;52862;52.504;13.480;2023-10-13T00:55:17;16.47;;;3.77;;
51866;SDS011;52862;52.504;13.480;2023-10-13T00:57:49;15.47;;;3.43;;
51866;SDS011;52862;52.504;13.480;2023-10-13T01:00:19;12.87;;;4.00;;
51866;SDS011;52862;52.504;13.480;2023-10-13T01:02:54;13.87;;;4.13;;
51866;SDS011;52862;52.504;13.480;2023-10-13T01:05:21;16.20;;;3.77;;
51866;SDS011;52862;52.504;13.480;2023-10-13T01:07:49;13.77;;;4.03;;
51866;SDS011;52862;52.504;13.480;2023-10-13T01:10:18;15.80;;;4.07;;
51866;SDS011;52862;52.504;13.480;2023-10-13T01:12:45;12.27;;;3.10;;
51866;SDS011;52862;52.504;13.480;2023-10-13T01:15:13;12.90;;;3.50;;
51866;SDS011;52862;52.504;13.480;2023-10-13T01:17:45;9.87;;;3.43;;
51866;SDS011;52862;52.504;13.480;2023-10-13T01:20:12;14.53;;;3.80;;
51866;SDS011;52862;52.504;13.480;2023-10-13T01:22:46;13.03;;;4.13;;
51866;SDS011;52862;52.504;13.480;2023-10-13T01:25:22;8.77;;;3.63;;
51866;SDS011;52862;52.504;13.480;2023-10-13T01:27:51;16.07;;;3.73;;
51866;SDS011;52862;52.504;13.480;2023-10-13T01:30:18;15.63;;;4.33;;
51866;SDS011;52862;52.504;13.480;2023-10-13T01:32:51;10.67;;;3.77;;
51866;SDS011;52862;52.504;13.480;2023-10-13T01:35:19;12.23;;;3.80;;
51866;SDS011;52862;52.504;13.480;2023-10-13T01:37:51;10.57;;;3.30;;
51866;SDS011;52862;52.504;13.480;2023-10-13T01:40:17;13.83;;;4.10;;
51866;SDS011;52862;52.504;13.480;2023-10-13T01:42:46;17.83;;;4.80;;
51866;SDS011;52862;52.504;13.480;2023-10-13T01:45:20;18.10;;;4.60;;
51866;SDS011;52862;52.504;13.480;2023-10-13T01:47:47;18.73;;;4.87;;
51866;SDS011;52862;52.504;13.480;2023-10-13T01:50:16;25.33;;;5.47;;
51866;SDS011;52862;52.504;13.480;2023-10-13T01:52:46;24.90;;;5.20;;
51866;SDS011;52862;52.504;13.480;2023-10-13T01:55:13;13.97;;;4.80;;
51866;SDS011;52862;52.504;13.480;2023-10-13T01:57:40;28.30;;;7.60;;
51866;SDS011;52862;52.504;13.480;2023-10-13T02:00:09;31.30;;;5.97;;
51866;SDS011;52862;52.504;13.480;2023-10-13T02:02:44;29.50;;;6.30;;
51866;SDS011;52862;52.504;13.480;2023-10-13T02:05:15;21.97;;;5.53;;
51866;SDS011;52862;52.504;13.480;2023-10-13T02:07:42;21.53;;;6.00;;
51866;SDS011;52862;52.504;13.480;2023-10-13T02:10:11;22.87;;;6.03;;
51866;SDS011;52862;52.504;13.480;2023-10-13T02:12:38;31.73;;;6.10;;
51866;SDS011;52862;52.504;13.480;2023-10-13T02:15:09;24.80;;;6.57;;
51866;SDS011;52862;52.504;13.480;2023-10-13T02:17:38;31.20;;;7.07;;
51866;SDS011;52862;52.504;13.480;2023-10-13T02:20:07;17.93;;;6.00;;
51866;SDS011;52862;52.504;13.480;2023-10-13T02:22:36;22.50;;;7.07;;
51866;SDS011;52862;52.504;13.480;2023-10-13T02:25:04;26.43;;;8.27;;
51866;SDS011;52862;52.504;13.480;2023-10-13T02:27:32;21.57;;;6.33;;
51866;SDS011;52862;52.504;13.480;2023-10-13T02:30:06;23.50;;;6.40;;
51866;SDS011;52862;52.504;13.480;2023-10-13T02:32:39;32.73;;;6.93;;
51866;SDS011;52862;52.504;13.480;2023-10-13T02:35:09;26.00;;;6.50;;
51866;SDS011;52862;52.504;13.480;2023-10-13T02:37:41;23.10;;;6.27;;
51866;SDS011;52862;52.504;13.480;2023-10-13T02:40:10;24.97;;;6.67;;
51866;SDS011;52862;52.504;13.480;2023-10-13T02:42:37;29.00;;;6.40;;
51866;SDS011;52862;52.504;13.480;2023-10-13T02:45:05;23.17;;;6.23;;
51866;SDS011;52862;52.504;13.480;2023-10-13T02:47:33;24.50;;;7.23;;
51866;SDS011;52862;52.504;13.480;2023-10-13T02:50:00;28.90;;;7.67;;
51866;SDS011;52862;52.504;13.480;2023-10-13T02:52:37;19.97;;;7.53;;
51866;SDS011;52862;52.504;13.480;2023-10-13T02:55:07;28.33;;;9.07;;
51866;SDS011;52862;52.504;13.480;2023-10-13T02:57:35;21.17;;;7.67;;
51866;SDS011;52862;52.504;13.480;2023-10-13T03:00:02;29.20;;;8.20;;
51866;SDS011;52862;52.504;13.480;2023-10-13T03:02:42;31.30;;;9.07;;
51866;SDS011;52862;52.504;13.480;2023-10-13T03:05:11;22.83;;;8.37;;
51866;SDS011;52862;52.504;13.480;2023-10-13T03:07:39;17.43;;;9.10;;
51866;SDS011;52862;52.504;13.480;2023-10-13T03:10:08;31.27;;;9.40;;
51866;SDS011;52862;52.504;13.480;2023-10-13T03:12:36;19.53;;;8.17;;
51866;SDS011;52862;52.504;13.480;2023-10-13T03:15:03;24.23;;;8.27;;
51866;SDS011;52862;52.504;13.480;2023-10-13T03:17:38;23.73;;;9.30;;
51866;SDS011;52862;52.504;13.480;2023-10-13T03:20:09;27.40;;;9.83;;
51866;SDS011;52862;52.504;13.480;2023-10-13T03:22:39;39.57;;;9.40;;
51866;SDS011;52862;52.504;13.480;2023-10-13T03:25:06;26.77;;;9.50;;
51866;SDS011;52862;52.504;13.480;2023-10-13T03:27:34;30.53;;;9.80;;
51866;SDS011;52862;52.504;13.480;2023-10-13T03:30:28;24.23;;;9.60;;
51866;SDS011;52862;52.504;13.480;2023-10-13T03:33:02;33.70;;;9.60;;
51866;SDS011;52862;52.504;13.480;2023-10-13T03:35:33;22.73;;;9.37;;
51866;SDS011;52862;52.504;13.480;2023-10-13T03:38:08;26.13;;;9.73;;
51866;SDS011;52862;52.504;13.480;2023-10-13T03:40:43;22.63;;;9.80;;
51866;SDS011;52862;52.504;13.480;2023-10-13T03:43:22;28.10;;;10.77;;
51866;SDS011;52862;52.504;13.480;2023-10-13T03:45:49;29.63;;;10.87;;
51866;SDS011;52862;52.504;13.480;2023-10-13T03:48:19;25.27;;;11.00;;
51866;SDS011;52862;52.504;13.480;2023-10-13T03:50:54;37.63;;;11.40;;
51866;SDS011;52862;52.504;13.480;2023-10-13T03:53:30;26.50;;;11.23;;
51866;SDS011;52862;52.504;13.480;2023-10-13T03:55:59;33.47;;;12.23;;
51866;SDS011;52862;52.504;13.480;2023-10-13T03:58:37;31.37;;;12.83;;
51866;SDS011;52862;52.504;13.480;2023-10-13T04:01:07;39.87;;;12.23;;
51866;SDS011;52862;52.504;13.480;2023-10-13T04:03:37;43.20;;;14.87;;
51866;SDS011;52862;52.504;13.480;2023-10-13T04:06:04;44.50;;;14.13;;
51866;SDS011;52862;52.504;13.480;2023-10-13T04:08:32;33.90;;;13.47;;
51866;SDS011;52862;52.504;13.480;2023-10-13T04:11:19;34.53;;;13.63;;
51866;SDS011;52862;52.504;13.480;2023-10-13T04:14:25;39.17;;;14.53;;
51866;SDS011;52862;52.504;13.480;2023-10-13T04:17:23;39.83;;;15.47;;
51866;SDS011;52862;52.504;13.480;2023-10-13T04:19:52;32.40;;;14.33;;
51866;SDS011;52862;52.504;13.480;2023-10-13T04:22:35;59.30;;;15.20;;
51866;SDS011;52862;52.504;13.480;2023-10-13T04:25:18;52.27;;;17.20;;
51866;SDS011;52862;52.504;13.480;2023-10-13T04:28:01;42.93;;;16.47;;
51866;SDS011;52862;52.504;13.480;2023-10-13T04:30:43;36.10;;;15.90;;
51866;SDS011;52862;52.504;13.480;2023-10-13T04:33:26;45.03;;;16.30;;
51866;SDS011;52862;52.504;13.480;2023-10-13T04:36:16;44.03;;;16.47;;
51866;SDS011;52862;52.504;13.480;2023-10-13T04:39:02;32.03;;;16.13;;
51866;SDS011;52862;52.504;13.480;2023-10-13T04:41:43;39.57;;;17.20;;
51866;SDS011;52862;52.504;13.480;2023-10-13T04:44:23;35.90;;;16.37;;
51866;SDS011;52862;52.504;13.480;2023-10-13T04:47:08;42.60;;;17.90;;
51866;SDS011;52862;52.504;13.480;2023-10-13T04:49:43;43.00;;;18.10;;
51866;SDS011;52862;52.504;13.480;2023-10-13T04:52:18;39.37;;;18.77;;
51866;SDS011;52862;52.504;13.480;2023-10-13T04:55:03;42.40;;;17.50;;
51866;SDS011;52862;52.504;13.480;2023-10-13T04:57:59;42.40;;;18.13;;
51866;SDS011;52862;52.504;13.480;2023-10-13T05:00:36;42.93;;;19.23;;
51866;SDS011;52862;52.504;13.480;2023-10-13T05:03:41;42.30;;;18.97;;
51866;SDS011;52862;52.504;13.480;2023-10-13T05:06:34;49.70;;;20.43;;
51866;SDS011;52862;52.504;13.480;2023-10-13T05:09:19;45.03;;;19.70;;
51866;SDS011;52862;52.504;13.480;2023-10-13T05:12:04;46.83;;;19.27;;
51866;SDS011;52862;52.504;13.480;2023-10-13T05:14:50;41.07;;;19.97;;
51866;SDS011;52862;52.504;13.480;2023-10-13T05:17:35;46.80;;;19.33;;
51866;SDS011;52862;52.504;13.480;2023-10-13T05:20:19;37.43;;;19.23;;
51866;SDS011;52862;52.504;13.480;2023-10-13T05:23:04;43.10;;;19.27;;
51866;SDS011;52862;52.504;13.480;2023-10-13T05:25:48;43.73;;;19.77;;
51866;SDS011;52862;52.504;13.480;2023-10-13T05:28:33;46.77;;;19.50;;
51866;SDS011;52862;52.504;13.480;2023-10-13T05:31:19;45.63;;;18.73;;
51866;SDS011;52862;52.504;13.480;2023-10-13T05:34:04;43.20;;;19.17;;
51866;SDS011;52862;52.504;13.480;2023-10-13T05:36:49;49.90;;;19.30;;
51866;SDS011;52862;52.504;13.480;2023-10-13T05:39:33;37.23;;;18.73;;
51866;SDS011;52862;52.504;13.480;2023-10-13T05:42:18;43.90;;;19.30;;
51866;SDS011;52862;52.504;13.480;2023-10-13T05:45:03;49.73;;;18.93;;
51866;SDS011;52862;52.504;13.480;2023-10-13T05:47:49;36.00;;;18.83;;
51866;SDS011;52862;52.504;13.480;2023-10-13T05:50:27;40.43;;;19.00;;
51866;SDS011;52862;52.504;13.480;2023-10-13T05:53:13;42.43;;;18.53;;
51866;SDS011;52862;52.504;13.480;2023-10-13T05:55:59;40.80;;;18.10;;
51866;SDS011;52862;52.504;13.480;2023-10-13T05:58:44;34.77;;;16.70;;
51866;SDS011;52862;52.504;13.480;2023-10-13T06:01:29;38.33;;;17.57;;
51866;SDS011;52862;52.504;13.480;2023-10-13T06:04:15;50.17;;;18.63;;
51866;SDS011;52862;52.504;13.480;2023-10-13T06:06:59;50.87;;;17.30;;
51866;SDS011;52862;52.504;13.480;2023-10-13T06:09:44;36.80;;;18.70;;
51866;SDS011;52862;52.504;13.480;2023-10-13T06:12:29;37.00;;;17.03;;
51866;SDS011;52862;52.504;13.480;2023-10-13T06:15:14;41.30;;;17.23;;
51866;SDS011;52862;52.504;13.480;2023-10-13T06:17:59;41.67;;;16.40;;
51866;SDS011;52862;52.504;13.480;2023-10-13T06:20:45;35.53;;;17.27;;
51866;SDS011;52862;52.504;13.480;2023-10-13T06:23:30;32.57;;;16.33;;
51866;SDS011;52862;52.504;13.480;2023-10-13T06:26:16;33.60;;;17.67;;
51866;SDS011;52862;52.504;13.480;2023-10-13T06:29:01;37.93;;;16.73;;
51866;SDS011;52862;52.504;13.480;2023-10-13T06:31:27;44.23;;;16.33;;
51866;SDS011;52862;52.504;13.480;2023-10-13T06:33:54;38.90;;;17.47;;
51866;SDS011;52862;52.504;13.480;2023-10-13T06:36:22;32.17;;;15.97;;
51866;SDS011;52862;52.504;13.480;2023-10-13T06:38:49;39.37;;;16.77;;
51866;SDS011;52862;52.504;13.480;2023-10-13T06:41:22;42.20;;;15.90;;
51866;SDS011;52862;52.504;13.480;2023-10-13T06:43:56;38.87;;;15.80;;
51866;SDS011;52862;52.504;13.480;2023-10-13T06:46:26;52.83;;;16.77;;
51866;SDS011;52862;52.504;13.480;2023-10-13T06:48:54;36.40;;;16.60;;
51866;SDS011;52862;52.504;13.480;2023-10-13T06:51:25;32.57;;;15.13;;
51866;SDS011;52862;52.504;13.480;2023-10-13T06:53:56;35.60;;;14.33;;
51866;SDS011;52862;52.504;13.480;2023-10-13T06:56:23;41.00;;;15.57;;
51866;SDS011;52862;52.504;13.480;2023-10-13T06:58:53;32.53;;;14.63;;
51866;SDS011;52862;52.504;13.480;2023-10-13T07:01:25;30.67;;;14.57;;
51866;SDS011;52862;52.504;13.480;2023-10-13T07:03:52;31.47;;;14.00;;
51866;SDS011;52862;52.504;13.480;2023-10-13T07:06:20;34.17;;;15.10;;
51866;SDS011;52862;52.504;13.480;2023-10-13T07:08:47;29.40;;;13.37;;
51866;SDS011;52862;52.504;13.480;2023-10-13T07:11:18;29.80;;;13.30;;
51866;SDS011;52862;52.504;13.480;2023-10-13T07:13:48;26.37;;;12.40;;
51866;SDS011;52862;52.504;13.480;2023-10-13T07:16:18;23.33;;;11.67;;
51866;SDS011;52862;52.504;13.480;2023-10-13T07:18:55;23.60;;;11.33;;
51866;SDS011;52862;52.504;13.480;2023-10-13T07:21:29;23.77;;;10.87;;
51866;SDS011;52862;52.504;13.480;2023-10-13T07:23:57;24.00;;;10.57;;
51866;SDS011;52862;52.504;13.480;2023-10-13T07:26:34;32.20;;;11.43;;
51866;SDS011;52862;52.504;13.480;2023-10-13T07:29:02;22.73;;;9.80;;
51866;SDS011;52862;52.504;13.480;2023-10-13T07:31:33;25.33;;;10.40;;
51866;SDS011;52862;52.504;13.480;2023-10-13T07:34:00;22.63;;;10.43;;
51866;SDS011;52862;52.504;13.480;2023-10-13T07:36:35;25.07;;;10.23;;
51866;SDS011;52862;52.504;13.480;2023-10-13T07:39:06;23.13;;;10.37;;
51866;SDS011;52862;52.504;13.480;2023-10-13T07:41:49;30.00;;;10.30;;
51866;SDS011;52862;52.504;13.480;2023-10-13T07:44:19;15.27;;;9.30;;
51866;SDS011;52862;52.504;13.480;2023-10-13T07:46:51;19.33;;;9.10;;
51866;SDS011;52862;52.504;13.480;2023-10-13T07:49:28;19.07;;;7.93;;
51866;SDS011;52862;52.504;13.480;2023-10-13T07:51:57;19.67;;;9.37;;
51866;SDS011;52862;52.504;13.480;2023-10-13T07:54:27;17.13;;;8.17;;
51866;SDS011;52862;52.504;13.480;2023-10-13T07:56:54;23.73;;;10.93;;
51866;SDS011;52862;52.504;13.480;2023-10-13T07:59:21;20.87;;;8.40;;
51866;SDS011;52862;52.504;13.480;2023-10-13T08:01:49;24.07;;;8.60;;
51866;SDS011;52862;52.504;13.480;2023-10-13T08:04:38;23.00;;;7.57;;
51866;SDS011;52862;52.504;13.480;2023-10-13T08:07:04;19.10;;;8.50;;
51866;SDS011;52862;52.504;13.480;2023-10-13T08:09:40;28.10;;;8.10;;
51866;SDS011;52862;52.504;13.480;2023-10-13T08:12:09;20.03;;;8.27;;
51866;SDS011;52862;52.504;13.480;2023-10-13T08:14:37;17.80;;;8.13;;
51866;SDS011;52862;52.504;13.480;2023-10-13T08:17:06;19.73;;;8.03;;
51866;SDS011;52862;52.504;13.480;2023-10-13T08:19:35;25.47;;;8.07;;
51866;SDS011;52862;52.504;13.480;2023-10-13T08:22:11;18.00;;;7.57;;
51866;SDS011;52862;52.504;13.480;2023-10-13T08:24:50;27.20;;;8.20;;
51866;SDS011;52862;52.504;13.480;2023-10-13T08:27:36;19.40;;;8.17;;
51866;SDS011;52862;52.504;13.480;2023-10-13T08:30:14;15.57;;;7.60;;
51866;SDS011;52862;52.504;13.480;2023-10-13T08:32:52;20.73;;;7.33;;
51866;SDS011;52862;52.504;13.480;2023-10-13T08:35:22;18.27;;;7.80;;
51866;SDS011;52862;52.504;13.480;2023-10-13T08:38:02;14.07;;;7.67;;
51866;SDS011;52862;52.504;13.480;2023-10-13T08:40:57;17.80;;;7.17;;
51866;SDS011;52862;52.504;13.480;2023-10-13T08:43:43;16.33;;;7.00;;
51866;SDS011;52862;52.504;13.480;2023-10-13T08:46:16;18.57;;;7.70;;
51866;SDS011;52862;52.504;13.480;2023-10-13T08:48:55;16.43;;;7.47;;
51866;SDS011;52862;52.504;13.480;2023-10-13T08:51:40;16.23;;;8.00;;
51866;SDS011;52862;52.504;13.480;2023-10-13T08:54:12;18.50;;;7.63;;
51866;SDS011;52862;52.504;13.480;2023-10-13T08:56:47;12.77;;;7.23;;
51866;SDS011;52862;52.504;13.480;2023-10-13T08:59:21;14.17;;;7.23;;
51866;SDS011;52862;52.504;13.480;2023-10-13T09:01:48;19.97;;;7.10;;
51866;SDS011;52862;52.504;13.480;2023-10-13T09:04:25;17.03;;;7.23;;
51866;SDS011;52862;52.504;13.480;2023-10-13T09:06:59;15.63;;;7.87;;
51866;SDS011;52862;52.504;13.480;2023-10-13T09:09:44;15.87;;;7.33;;
51866;SDS011;52862;52.504;13.480;2023-10-13T09:12:40;21.03;;;7.50;;
51866;SDS011;52862;52.504;13.480;2023-10-13T09:15:29;20.67;;;7.37;;
51866;SDS011;52862;52.504;13.480;2023-10-13T09:18:23;20.33;;;6.50;;
51866;SDS011;52862;52.504;13.480;2023-10-13T09:21:07;20.90;;;7.17;;
51866;SDS011;52862;52.504;13.480;2023-10-13T09:23:55;16.83;;;6.57;;
51866;SDS011;52862;52.504;13.480;2023-10-13T09:26:42;16.87;;;6.83;;
51866;SDS011;52862;52.504;13.480;2023-10-13T09:29:17;13.57;;;7.20;;
51866;SDS011;52862;52.504;13.480;2023-10-13T09:31:46;16.70;;;6.57;;
51866;SDS011;52862;52.504;13.480;2023-10-13T09:34:20;16.27;;;6.57;;
51866;SDS011;52862;52.504;13.480;2023-10-13T09:36:50;18.50;;;6.80;;
51866;SDS011;52862;52.504;13.480;2023-10-13T09:39:23;26.03;;;7.93;;
51866;SDS011;52862;52.504;13.480;2023-10-13T09:42:00;12.93;;;7.03;;
51866;SDS011;52862;52.504;13.480;2023-10-13T09:44:29;21.43;;;7.03;;
51866;SDS011;52862;52.504;13.480;2023-10-13T09:46:59;21.50;;;7.13;;
51866;SDS011;52862;52.504;13.480;2023-10-13T09:49:37;18.60;;;7.20;;
51866;SDS011;52862;52.504;13.480;2023-10-13T09:52:15;18.43;;;7.40;;
51866;SDS011;52862;52.504;13.480;2023-10-13T09:54:50;17.47;;;6.73;;
51866;SDS011;52862;52.504;13.480;2023-10-13T09:57:27;14.20;;;6.90;;
51866;SDS011;52862;52.504;13.480;2023-10-13T10:00:11;13.30;;;7.00;;
51866;SDS011;52862;52.504;13.480;2023-10-13T10:02:58;17.20;;;7.20;;
51866;SDS011;52862;52.504;13.480;2023-10-13T10:05:41;17.37;;;7.00;;
51866;SDS011;52862;52.504;13.480;2023-10-13T10:08:23;13.97;;;7.00;;
51866;SDS011;52862;52.504;13.480;2023-10-13T10:11:00;24.20;;;9.03;;
51866;SDS011;52862;52.504;13.480;2023-10-13T10:13:34;17.97;;;7.93;;
51866;SDS011;52862;52.504;13.480;2023-10-13T10:16:10;18.20;;;7.40;;
51866;SDS011;52862;52.504;13.480;2023-10-13T10:18:40;12.07;;;6.93;;
51866;SDS011;52862;52.504;13.480;2023-10-13T10:21:08;14.70;;;7.30;;
51866;SDS011;52862;52.504;13.480;2023-10-13T10:23:36;19.93;;;6.50;;
51866;SDS011;52862;52.504;13.480;2023-10-13T10:26:11;21.63;;;6.87;;
51866;SDS011;52862;52.504;13.480;2023-10-13T10:28:41;19.77;;;7.10;;
51866;SDS011;52862;52.504;13.480;2023-10-13T10:31:10;16.60;;;7.03;;
51866;SDS011;52862;52.504;13.480;2023-10-13T10:33:38;17.37;;;6.23;;
51866;SDS011;52862;52.504;13.480;2023-10-13T10:36:07;22.37;;;6.77;;
51866;SDS011;52862;52.504;13.480;2023-10-13T10:38:51;19.70;;;7.10;;
51866;SDS011;52862;52.504;13.480;2023-10-13T10:41:25;12.00;;;6.73;;
51866;SDS011;52862;52.504;13.480;2023-10-13T10:43:58;15.87;;;7.80;;
51866;SDS011;52862;52.504;13.480;2023-10-13T10:46:29;22.50;;;7.23;;
51866;SDS011;52862;52.504;13.480;2023-10-13T10:49:03;14.27;;;6.80;;
51866;SDS011;52862;52.504;13.480;2023-10-13T10:51:31;16.57;;;6.60;;
51866;SDS011;52862;52.504;13.480;2023-10-13T10:54:00;17.47;;;6.87;;
51866;SDS011;52862;52.504;13.480;2023-10-13T10:56:37;17.67;;;7.10;;
51866;SDS011;52862;52.504;13.480;2023-10-13T10:59:04;13.97;;;6.60;;
51866;SDS011;52862;52.504;13.480;2023-10-13T11:01:42;16.77;;;6.63;;
51866;SDS011;52862;52.504;13.480;2023-10-13T11:04:13;15.27;;;6.50;;
51866;SDS011;52862;52.504;13.480;2023-10-13T11:06:47;14.97;;;6.83;;
51866;SDS011;52862;52.504;13.480;2023-10-13T11:09:15;17.87;;;7.47;;
51866;SDS011;52862;52.504;13.480;2023-10-13T11:11:57;16.03;;;7.37;;
51866;SDS011;52862;52.504;13.480;2023-10-13T11:14:40;16.70;;;7.27;;
51866;SDS011;52862;52.504;13.480;2023-10-13T11:17:09;25.23;;;7.33;;
51866;SDS011;52862;52.504;13.480;2023-10-13T11:19:43;22.40;;;7.20;;
51866;SDS011;52862;52.504;13.480;2023-10-13T11:22:10;18.43;;;7.80;;
51866;SDS011;52862;52.504;13.480;2023-10-13T11:24:55;13.67;;;7.80;;
51866;SDS011;52862;52.504;13.480;2023-10-13T11:27:28;19.90;;;8.27;;
51866;SDS011;52862;52.504;13.480;2023-10-13T11:30:10;16.47;;;7.87;;
51866;SDS011;52862;52.504;13.480;2023-10-13T11:32:41;21.00;;;6.90;;
51866;SDS011;52862;52.504;13.480;2023-10-13T11:35:08;17.83;;;7.13;;
51866;SDS011;52862;52.504;13.480;2023-10-13T11:37:46;18.17;;;7.47;;
51866;SDS011;52862;52.504;13.480;2023-10-13T11:40:21;21.83;;;7.47;;
51866;SDS011;52862;52.504;13.480;2023-10-13T11:43:11;18.33;;;6.87;;
51866;SDS011;52862;52.504;13.480;2023-10-13T11:45:41;24.43;;;7.50;;
51866;SDS011;52862;52.504;13.480;2023-10-13T11:48:21;19.40;;;7.40;;
51866;SDS011;52862;52.504;13.480;2023-10-13T11:51:00;21.23;;;6.90;;
51866;SDS011;52862;52.504;13.480;2023-10-13T11:53:31;23.30;;;7.70;;
51866;SDS011;52862;52.504;13.480;2023-10-13T11:55:58;26.50;;;7.83;;
51866;SDS011;52862;52.504;13.480;2023-10-13T11:58:25;25.13;;;7.43;;
51866;SDS011;52862;52.504;13.480;2023-10-13T12:00:54;24.07;;;6.93;;
51866;SDS011;52862;52.504;13.480;2023-10-13T12:03:35;16.00;;;6.97;;
51866;SDS011;52862;52.504;13.480;2023-10-13T12:06:22;16.73;;;6.43;;
51866;SDS011;52862;52.504;13.480;2023-10-13T12:08:58;24.48;;;6.90;;
51866;SDS011;52862;52.504;13.480;2023-10-13T12:11:39;17.23;;;6.80;;
51866;SDS011;52862;52.504;13.480;2023-10-13T12:14:08;17.33;;;6.90;;
51866;SDS011;52862;52.504;13.480;2023-10-13T12:16:42;13.17;;;6.27;;
51866;SDS011;52862;52.504;13.480;2023-10-13T12:19:15;27.07;;;7.83;;
51866;SDS011;52862;52.504;13.480;2023-10-13T12:21:42;20.87;;;6.90;;
51866;SDS011;52862;52.504;13.480;2023-10-13T12:24:09;20.38;;;6.82;;
51866;SDS011;52862;52.504;13.480;2023-10-13T12:26:48;27.90;;;5.93;;
51866;SDS011;52862;52.504;13.480;2023-10-13T12:29:22;19.20;;;6.00;;
51866;SDS011;52862;52.504;13.480;2023-10-13T12:31:53;15.33;;;6.13;;
51866;SDS011;52862;52.504;13.480;2023-10-13T12:34:32;20.40;;;6.47;;
51866;SDS011;52862;52.504;13.480;2023-10-13T12:37:12;22.05;;;6.20;;
51866;SDS011;52862;52.504;13.480;2023-10-13T12:40:03;15.20;;;6.85;;
51866;SDS011;52862;52.504;13.480;2023-10-13T12:42:49;21.93;;;6.30;;
51866;SDS011;52862;52.504;13.480;2023-10-13T12:45:37;18.63;;;7.27;;
51866;SDS011;52862;52.504;13.480;2023-10-13T12:48:23;21.58;;;6.55;;
51866;SDS011;52862;52.504;13.480;2023-10-13T12:51:22;30.27;;;6.97;;
51866;SDS011;52862;52.504;13.480;2023-10-13T12:54:04;19.97;;;5.87;;
51866;SDS011;52862;52.504;13.480;2023-10-13T12:56:32;21.58;;;6.57;;
51866;SDS011;52862;52.504;13.480;2023-10-13T12:58:59;21.45;;;6.78;;
51866;SDS011;52862;52.504;13.480;2023-10-13T13:01:26;19.40;;;5.97;;
51866;SDS011;52862;52.504;13.480;2023-10-13T13:03:58;39.07;;;7.13;;
51866;SDS011;52862;52.504;13.480;2023-10-13T13:06:29;31.95;;;6.28;;
51866;SDS011;52862;52.504;13.480;2023-10-13T13:08:57;25.57;;;6.70;;
51866;SDS011;52862;52.504;13.480;2023-10-13T13:11:24;25.43;;;6.00;;
51866;SDS011;52862;52.504;13.480;2023-10-13T13:13:52;32.83;;;6.20;;
51866;SDS011;52862;52.504;13.480;2023-10-13T13:16:19;23.50;;;6.97;;
51866;SDS011;52862;52.504;13.480;2023-10-13T13:18:49;31.65;;;6.95;;
51866;SDS011;52862;52.504;13.480;2023-10-13T13:21:16;25.30;;;6.28;;
51866;SDS011;52862;52.504;13.480;2023-10-13T13:23:49;32.88;;;6.38;;
51866;SDS011;52862;52.504;13.480;2023-10-13T13:26:16;20.95;;;5.95;;
51866;SDS011;52862;52.504;13.480;2023-10-13T13:28:43;19.25;;;6.75;;
51866;SDS011;52862;52.504;13.480;2023-10-13T13:31:11;24.05;;;6.38;;
51866;SDS011;52862;52.504;13.480;2023-10-13T13:33:38;20.67;;;5.68;;
51866;SDS011;52862;52.504;13.480;2023-10-13T13:36:08;29.65;;;6.88;;
51866;SDS011;52862;52.504;13.480;2023-10-13T13:38:42;19.52;;;5.90;;
51866;SDS011;52862;52.504;13.480;2023-10-13T13:41:12;32.50;;;7.05;;
51866;SDS011;52862;52.504;13.480;2023-10-13T13:43:42;21.63;;;6.00;;
51866;SDS011;52862;52.504;13.480;2023-10-13T13:46:20;23.98;;;6.20;;
51866;SDS011;52862;52.504;13.480;2023-10-13T13:48:50;16.60;;;5.22;;
51866;SDS011;52862;52.504;13.480;2023-10-13T13:51:23;28.40;;;6.75;;
51866;SDS011;52862;52.504;13.480;2023-10-13T13:53:53;20.88;;;6.57;;
51866;SDS011;52862;52.504;13.480;2023-10-13T13:56:22;29.52;;;5.75;;
51866;SDS011;52862;52.504;13.480;2023-10-13T13:58:51;26.55;;;5.80;;
51866;SDS011;52862;52.504;13.480;2023-10-13T14:01:18;23.08;;;6.38;;
51866;SDS011;52862;52.504;13.480;2023-10-13T14:03:47;22.75;;;5.45;;
51866;SDS011;52862;52.504;13.480;2023-10-13T14:06:17;24.60;;;5.45;;
51866;SDS011;52862;52.504;13.480;2023-10-13T14:08:47;23.38;;;5.05;;
51866;SDS011;52862;52.504;13.480;2023-10-13T14:11:14;17.10;;;5.40;;
51866;SDS011;52862;52.504;13.480;2023-10-13T14:14:00;22.67;;;5.47;;
51866;SDS011;52862;52.504;13.480;2023-10-13T14:16:30;28.83;;;5.68;;
51866;SDS011;52862;52.504;13.480;2023-10-13T14:19:03;32.22;;;5.28;;
51866;SDS011;52862;52.504;13.480;2023-10-13T14:21:33;21.00;;;5.22;;
51866;SDS011;52862;52.504;13.480;2023-10-13T14:24:00;21.98;;;5.28;;
51866;SDS011;52862;52.504;13.480;2023-10-13T14:26:28;22.23;;;5.47;;
51866;SDS011;52862;52.504;13.480;2023-10-13T14:28:57;41.55;;;5.95;;
51866;SDS011;52862;52.504;13.480;2023-10-13T14:31:28;22.63;;;6.00;;
51866;SDS011;52862;52.504;13.480;2023-10-13T14:33:55;22.42;;;4.90;;
51866;SDS011;52862;52.504;13.480;2023-10-13T14:36:23;20.48;;;6.15;;
51866;SDS011;52862;52.504;13.480;2023-10-13T14:38:54;19.95;;;5.72;;
51866;SDS011;52862;52.504;13.480;2023-10-13T14:41:21;24.52;;;6.32;;
51866;SDS011;52862;52.504;13.480;2023-10-13T14:43:48;23.77;;;5.88;;
51866;SDS011;52862;52.504;13.480;2023-10-13T14:57:19;20.13;;;5.88;;
51866;SDS011;52862;52.504;13.480;2023-10-13T14:59:56;33.35;;;6.53;;
51866;SDS011;52862;52.504;13.480;2023-10-13T15:02:55;24.17;;;5.75;;
51866;SDS011;52862;52.504;13.480;2023-10-13T15:05:22;31.92;;;6.32;;
51866;SDS011;52862;52.504;13.480;2023-10-13T15:07:50;28.83;;;7.30;;
51866;SDS011;52862;52.504;13.480;2023-10-13T15:10:17;26.88;;;6.72;;
51866;SDS011;52862;52.504;13.480;2023-10-13T15:12:44;24.63;;;6.85;;